sensor_id;sensor_type;location;lat;lon;timestamp;P1;durP1;ratioP1;P2;durP2;ratioP2
64244;SDS011;50584;29.058;-110.966;2022-09-03T00:07:14;6.35;;;3.33;;
64244;SDS011;50584;29.058;-110.966;2022-09-03T00:09:49;4.53;;;2.25;;
64244;SDS011;50584;29.058;-110.966;2022-09-03T00:12:26;3.67;;;2.28;;
64244;SDS011;50584;29.058;-110.966;2022-09-03T00:14:54;8.75;;;1.63;;
64244;SDS011;50584;29.058;-110.966;2022-09-03T00:17:32;9.07;;;1.73;;
64244;SDS011;50584;29.058;-110.966;2022-09-03T00:20:04;4.75;;;1.88;;
64244;SDS011;50584;29.058;-110.966;2022-09-03T00:22:32;7.00;;;1.90;;
64244;SDS011;50584;29.058;-110.966;2022-09-03T00:25:01;1.88;;;1.77;;
64244;SDS011;50584;29.058;-110.966;2022-09-03T00:27:28;9.23;;;2.45;;
64244;SDS011;50584;29.058;-110.966;2022-09-03T00:29:58;14.38;;;2.40;;
64244;SDS011;50584;29.058;-110.966;2022-09-03T00:32:33;8.35;;;1.88;;
64244;SDS011;50584;29.058;-110.966;2022-09-03T00:35:02;2.15;;;1.20;;
64244;SDS011;50584;29.058;-110.966;2022-09-03T00:37:28;2.28;;;1.42;;
64244;SDS011;50584;29.058;-110.966;2022-09-03T00:39:57;7.93;;;1.55;;
64244;SDS011;50584;29.058;-110.966;2022-09-03T00:44:59;9.27;;;1.73;;
64244;SDS011;50584;29.058;-110.966;2022-09-03T00:58:25;4.75;;;1.80;;
64244;SDS011;50584;29.058;-110.966;2022-09-03T01:00:55;6.72;;;1.75;;
64244;SDS011;50584;29.058;-110.966;2022-09-03T01:06:12;2.28;;;1.48;;
64244;SDS011;50584;29.058;-110.966;2022-09-03T01:08:48;3.10;;;1.38;;
64244;SDS011;50584;29.058;-110.966;2022-09-03T01:11:19;5.53;;;1.90;;
64244;SDS011;50584;29.058;-110.966;2022-09-03T01:14:02;13.35;;;2.40;;
64244;SDS011;50584;29.058;-110.966;2022-09-03T01:16:44;6.57;;;1.60;;
64244;SDS011;50584;29.058;-110.966;2022-09-03T01:27:31;10.30;;;1.85;;
64244;SDS011;50584;29.058;-110.966;2022-09-03T01:30:13;6.03;;;1.80;;
64244;SDS011;50584;29.058;-110.966;2022-09-03T01:33:25;9.07;;;1.60;;
64244;SDS011;50584;29.058;-110.966;2022-09-03T01:40:41;8.02;;;1.85;;
64244;SDS011;50584;29.058;-110.966;2022-09-03T01:45:53;2.35;;;1.90;;
64244;SDS011;50584;29.058;-110.966;2022-09-03T01:48:43;5.40;;;2.83;;
64244;SDS011;50584;29.058;-110.966;2022-09-03T01:51:16;2.42;;;1.60;;
64244;SDS011;50584;29.058;-110.966;2022-09-03T02:01:48;6.68;;;2.15;;
64244;SDS011;50584;29.058;-110.966;2022-09-03T02:04:19;5.78;;;2.42;;
64244;SDS011;50584;29.058;-110.966;2022-09-03T02:06:47;2.72;;;2.00;;
64244;SDS011;50584;29.058;-110.966;2022-09-03T02:09:14;5.93;;;2.40;;
64244;SDS011;50584;29.058;-110.966;2022-09-03T02:11:41;9.45;;;2.53;;
64244;SDS011;50584;29.058;-110.966;2022-09-03T02:14:08;3.30;;;1.75;;
64244;SDS011;50584;29.058;-110.966;2022-09-03T02:16:34;8.70;;;2.25;;
64244;SDS011;50584;29.058;-110.966;2022-09-03T02:19:01;2.75;;;1.85;;
64244;SDS011;50584;29.058;-110.966;2022-09-03T02:21:29;3.25;;;2.30;;
64244;SDS011;50584;29.058;-110.966;2022-09-03T02:23:57;8.23;;;1.95;;
64244;SDS011;50584;29.058;-110.966;2022-09-03T02:26:23;6.95;;;2.22;;
64244;SDS011;50584;29.058;-110.966;2022-09-03T02:28:50;2.83;;;2.63;;
64244;SDS011;50584;29.058;-110.966;2022-09-03T02:31:16;5.57;;;3.08;;
64244;SDS011;50584;29.058;-110.966;2022-09-03T02:33:43;6.95;;;3.47;;
64244;SDS011;50584;29.058;-110.966;2022-09-03T02:36:12;4.97;;;2.88;;
64244;SDS011;50584;29.058;-110.966;2022-09-03T02:38:39;5.50;;;2.80;;
64244;SDS011;50584;29.058;-110.966;2022-09-03T02:41:05;3.88;;;2.90;;
64244;SDS011;50584;29.058;-110.966;2022-09-03T02:46:17;3.55;;;2.47;;
64244;SDS011;50584;29.058;-110.966;2022-09-03T02:48:45;8.50;;;2.83;;
64244;SDS011;50584;29.058;-110.966;2022-09-03T02:51:11;3.88;;;2.80;;
64244;SDS011;50584;29.058;-110.966;2022-09-03T02:53:37;2.47;;;2.38;;
64244;SDS011;50584;29.058;-110.966;2022-09-03T02:56:03;2.55;;;2.35;;
64244;SDS011;50584;29.058;-110.966;2022-09-03T02:58:29;6.18;;;2.20;;
64244;SDS011;50584;29.058;-110.966;2022-09-03T03:00:58;2.47;;;2.22;;
64244;SDS011;50584;29.058;-110.966;2022-09-03T03:03:24;4.72;;;2.40;;
64244;SDS011;50584;29.058;-110.966;2022-09-03T03:05:51;7.18;;;3.03;;
64244;SDS011;50584;29.058;-110.966;2022-09-03T03:08:20;3.63;;;2.85;;
64244;SDS011;50584;29.058;-110.966;2022-09-03T03:10:48;4.30;;;3.30;;
64244;SDS011;50584;29.058;-110.966;2022-09-03T03:13:15;6.65;;;3.22;;
64244;SDS011;50584;29.058;-110.966;2022-09-03T03:15:41;9.30;;;3.60;;
64244;SDS011;50584;29.058;-110.966;2022-09-03T03:18:07;7.57;;;3.85;;
64244;SDS011;50584;29.058;-110.966;2022-09-03T03:20:36;5.68;;;3.50;;
64244;SDS011;50584;29.058;-110.966;2022-09-03T03:23:03;7.10;;;3.45;;
64244;SDS011;50584;29.058;-110.966;2022-09-03T03:25:33;11.18;;;6.40;;
64244;SDS011;50584;29.058;-110.966;2022-09-03T03:27:59;5.18;;;4.47;;
64244;SDS011;50584;29.058;-110.966;2022-09-03T03:30:26;10.68;;;7.95;;
64244;SDS011;50584;29.058;-110.966;2022-09-03T03:32:52;9.45;;;5.68;;
64244;SDS011;50584;29.058;-110.966;2022-09-03T03:35:18;6.50;;;2.92;;
64244;SDS011;50584;29.058;-110.966;2022-09-03T03:37:44;13.75;;;9.30;;
64244;SDS011;50584;29.058;-110.966;2022-09-03T03:40:10;4.47;;;2.58;;
64244;SDS011;50584;29.058;-110.966;2022-09-03T03:42:36;7.88;;;5.35;;
64244;SDS011;50584;29.058;-110.966;2022-09-03T03:45:03;4.10;;;2.90;;
64244;SDS011;50584;29.058;-110.966;2022-09-03T03:47:29;5.10;;;4.15;;
64244;SDS011;50584;29.058;-110.966;2022-09-03T03:49:57;6.30;;;1.98;;
64244;SDS011;50584;29.058;-110.966;2022-09-03T03:52:23;1.80;;;1.70;;
64244;SDS011;50584;29.058;-110.966;2022-09-03T03:54:50;2.20;;;1.73;;
64244;SDS011;50584;29.058;-110.966;2022-09-03T03:57:16;8.23;;;3.00;;
64244;SDS011;50584;29.058;-110.966;2022-09-03T03:59:44;2.28;;;2.17;;
64244;SDS011;50584;29.058;-110.966;2022-09-03T04:02:10;2.50;;;2.30;;
64244;SDS011;50584;29.058;-110.966;2022-09-03T04:04:36;5.25;;;2.40;;
64244;SDS011;50584;29.058;-110.966;2022-09-03T04:07:01;4.03;;;2.80;;
64244;SDS011;50584;29.058;-110.966;2022-09-03T04:09:27;3.70;;;2.55;;
64244;SDS011;50584;29.058;-110.966;2022-09-03T04:11:53;10.48;;;4.28;;
64244;SDS011;50584;29.058;-110.966;2022-09-03T04:14:22;4.45;;;2.58;;
64244;SDS011;50584;29.058;-110.966;2022-09-03T04:16:48;6.68;;;2.80;;
64244;SDS011;50584;29.058;-110.966;2022-09-03T04:19:15;5.55;;;2.10;;
64244;SDS011;50584;29.058;-110.966;2022-09-03T04:21:41;5.13;;;2.30;;
64244;SDS011;50584;29.058;-110.966;2022-09-03T04:24:07;4.60;;;2.00;;
64244;SDS011;50584;29.058;-110.966;2022-09-03T04:26:33;2.67;;;2.47;;
64244;SDS011;50584;29.058;-110.966;2022-09-03T04:28:59;10.10;;;5.30;;
64244;SDS011;50584;29.058;-110.966;2022-09-03T04:31:26;3.60;;;3.10;;
64244;SDS011;50584;29.058;-110.966;2022-09-03T04:33:52;3.05;;;2.75;;
64244;SDS011;50584;29.058;-110.966;2022-09-03T04:36:20;7.60;;;2.17;;
64244;SDS011;50584;29.058;-110.966;2022-09-03T04:38:46;5.38;;;1.83;;
64244;SDS011;50584;29.058;-110.966;2022-09-03T04:41:16;3.63;;;2.30;;
64244;SDS011;50584;29.058;-110.966;2022-09-03T04:43:42;10.30;;;7.22;;
64244;SDS011;50584;29.058;-110.966;2022-09-03T04:46:09;2.90;;;2.28;;
64244;SDS011;50584;29.058;-110.966;2022-09-03T04:48:36;3.63;;;3.05;;
64244;SDS011;50584;29.058;-110.966;2022-09-03T04:51:11;9.88;;;2.78;;
64244;SDS011;50584;29.058;-110.966;2022-09-03T04:53:40;5.07;;;1.83;;
64244;SDS011;50584;29.058;-110.966;2022-09-03T04:56:19;2.47;;;2.28;;
64244;SDS011;50584;29.058;-110.966;2022-09-03T04:58:45;2.07;;;1.97;;
64244;SDS011;50584;29.058;-110.966;2022-09-03T05:01:15;11.70;;;2.25;;
64244;SDS011;50584;29.058;-110.966;2022-09-03T05:03:42;4.30;;;2.40;;
64244;SDS011;50584;29.058;-110.966;2022-09-03T05:06:08;6.60;;;3.10;;
64244;SDS011;50584;29.058;-110.966;2022-09-03T05:08:34;9.90;;;3.88;;
64244;SDS011;50584;29.058;-110.966;2022-09-03T05:11:01;6.13;;;3.22;;
64244;SDS011;50584;29.058;-110.966;2022-09-03T05:13:28;5.20;;;3.60;;
64244;SDS011;50584;29.058;-110.966;2022-09-03T05:16:00;3.53;;;3.22;;
64244;SDS011;50584;29.058;-110.966;2022-09-03T05:18:27;5.10;;;3.00;;
64244;SDS011;50584;29.058;-110.966;2022-09-03T05:20:59;7.32;;;3.67;;
64244;SDS011;50584;29.058;-110.966;2022-09-03T05:23:34;9.30;;;3.65;;
64244;SDS011;50584;29.058;-110.966;2022-09-03T05:26:01;4.93;;;3.72;;
64244;SDS011;50584;29.058;-110.966;2022-09-03T05:28:28;6.35;;;3.65;;
64244;SDS011;50584;29.058;-110.966;2022-09-03T05:31:01;11.93;;;4.38;;
64244;SDS011;50584;29.058;-110.966;2022-09-03T05:33:27;5.57;;;3.53;;
64244;SDS011;50584;29.058;-110.966;2022-09-03T05:35:54;5.60;;;3.70;;
64244;SDS011;50584;29.058;-110.966;2022-09-03T05:38:20;7.60;;;4.07;;
64244;SDS011;50584;29.058;-110.966;2022-09-03T05:40:45;8.90;;;3.70;;
64244;SDS011;50584;29.058;-110.966;2022-09-03T05:43:12;7.82;;;3.50;;
64244;SDS011;50584;29.058;-110.966;2022-09-03T05:45:38;5.65;;;3.95;;
64244;SDS011;50584;29.058;-110.966;2022-09-03T05:48:03;4.75;;;3.58;;
64244;SDS011;50584;29.058;-110.966;2022-09-03T05:50:29;10.73;;;4.07;;
64244;SDS011;50584;29.058;-110.966;2022-09-03T05:52:57;11.77;;;4.15;;
64244;SDS011;50584;29.058;-110.966;2022-09-03T05:55:23;10.48;;;4.53;;
64244;SDS011;50584;29.058;-110.966;2022-09-03T05:57:51;16.77;;;4.97;;
64244;SDS011;50584;29.058;-110.966;2022-09-03T06:00:17;8.90;;;4.15;;
64244;SDS011;50584;29.058;-110.966;2022-09-03T06:02:50;12.23;;;4.57;;
64244;SDS011;50584;29.058;-110.966;2022-09-03T06:05:16;12.23;;;4.20;;
64244;SDS011;50584;29.058;-110.966;2022-09-03T06:07:44;8.60;;;4.72;;
64244;SDS011;50584;29.058;-110.966;2022-09-03T06:10:13;10.10;;;4.38;;
64244;SDS011;50584;29.058;-110.966;2022-09-03T06:12:41;8.02;;;4.03;;
64244;SDS011;50584;29.058;-110.966;2022-09-03T06:15:07;5.50;;;4.10;;
64244;SDS011;50584;29.058;-110.966;2022-09-03T06:17:33;11.65;;;4.10;;
64244;SDS011;50584;29.058;-110.966;2022-09-03T06:19:59;13.80;;;4.43;;
64244;SDS011;50584;29.058;-110.966;2022-09-03T06:22:25;7.10;;;3.83;;
64244;SDS011;50584;29.058;-110.966;2022-09-03T06:24:52;7.57;;;3.88;;
64244;SDS011;50584;29.058;-110.966;2022-09-03T06:27:18;6.90;;;3.97;;
64244;SDS011;50584;29.058;-110.966;2022-09-03T06:29:45;9.40;;;3.88;;
64244;SDS011;50584;29.058;-110.966;2022-09-03T06:32:11;9.52;;;3.63;;
64244;SDS011;50584;29.058;-110.966;2022-09-03T06:34:37;7.90;;;4.40;;
64244;SDS011;50584;29.058;-110.966;2022-09-03T06:37:03;3.53;;;3.22;;
64244;SDS011;50584;29.058;-110.966;2022-09-03T06:39:28;8.23;;;3.20;;
64244;SDS011;50584;29.058;-110.966;2022-09-03T06:41:54;8.55;;;3.63;;
64244;SDS011;50584;29.058;-110.966;2022-09-03T06:44:20;11.35;;;3.85;;
64244;SDS011;50584;29.058;-110.966;2022-09-03T06:46:46;7.88;;;4.10;;
64244;SDS011;50584;29.058;-110.966;2022-09-03T06:49:13;7.95;;;3.72;;
64244;SDS011;50584;29.058;-110.966;2022-09-03T06:51:39;8.30;;;3.90;;
64244;SDS011;50584;29.058;-110.966;2022-09-03T06:54:06;7.13;;;3.97;;
64244;SDS011;50584;29.058;-110.966;2022-09-03T06:56:32;10.32;;;4.07;;
64244;SDS011;50584;29.058;-110.966;2022-09-03T06:58:59;5.40;;;3.83;;
64244;SDS011;50584;29.058;-110.966;2022-09-03T07:01:29;10.18;;;4.20;;
64244;SDS011;50584;29.058;-110.966;2022-09-03T07:04:02;5.22;;;4.00;;
64244;SDS011;50584;29.058;-110.966;2022-09-03T07:06:29;6.72;;;4.18;;
64244;SDS011;50584;29.058;-110.966;2022-09-03T07:08:55;10.85;;;5.18;;
64244;SDS011;50584;29.058;-110.966;2022-09-03T07:11:23;6.40;;;4.38;;
64244;SDS011;50584;29.058;-110.966;2022-09-03T07:13:51;4.72;;;4.30;;
64244;SDS011;50584;29.058;-110.966;2022-09-03T07:16:21;7.20;;;6.60;;
64244;SDS011;50584;29.058;-110.966;2022-09-03T07:18:47;14.85;;;13.35;;
64244;SDS011;50584;29.058;-110.966;2022-09-03T07:21:15;17.73;;;10.60;;
64244;SDS011;50584;29.058;-110.966;2022-09-03T07:23:41;7.20;;;6.50;;
64244;SDS011;50584;29.058;-110.966;2022-09-03T07:26:08;5.13;;;4.63;;
64244;SDS011;50584;29.058;-110.966;2022-09-03T07:28:35;5.88;;;4.05;;
64244;SDS011;50584;29.058;-110.966;2022-09-03T07:31:12;4.80;;;4.25;;
64244;SDS011;50584;29.058;-110.966;2022-09-03T07:33:39;6.05;;;4.07;;
64244;SDS011;50584;29.058;-110.966;2022-09-03T07:36:07;6.80;;;3.90;;
64244;SDS011;50584;29.058;-110.966;2022-09-03T07:38:33;4.10;;;3.70;;
64244;SDS011;50584;29.058;-110.966;2022-09-03T07:41:00;4.57;;;3.47;;
64244;SDS011;50584;29.058;-110.966;2022-09-03T07:43:27;8.00;;;4.18;;
64244;SDS011;50584;29.058;-110.966;2022-09-03T07:45:53;5.40;;;3.45;;
64244;SDS011;50584;29.058;-110.966;2022-09-03T07:48:20;4.03;;;3.50;;
64244;SDS011;50584;29.058;-110.966;2022-09-03T07:50:46;5.32;;;3.58;;
64244;SDS011;50584;29.058;-110.966;2022-09-03T07:53:12;7.15;;;3.28;;
64244;SDS011;50584;29.058;-110.966;2022-09-03T07:55:38;5.57;;;3.70;;
64244;SDS011;50584;29.058;-110.966;2022-09-03T07:58:04;5.38;;;3.42;;
64244;SDS011;50584;29.058;-110.966;2022-09-03T08:00:30;6.30;;;3.33;;
64244;SDS011;50584;29.058;-110.966;2022-09-03T08:02:58;6.43;;;3.30;;
64244;SDS011;50584;29.058;-110.966;2022-09-03T08:05:34;7.85;;;3.20;;
64244;SDS011;50584;29.058;-110.966;2022-09-03T08:08:01;4.85;;;3.72;;
64244;SDS011;50584;29.058;-110.966;2022-09-03T08:10:27;4.30;;;3.33;;
64244;SDS011;50584;29.058;-110.966;2022-09-03T08:12:56;9.55;;;3.33;;
64244;SDS011;50584;29.058;-110.966;2022-09-03T08:15:22;7.18;;;2.83;;
64244;SDS011;50584;29.058;-110.966;2022-09-03T08:17:48;4.40;;;3.25;;
64244;SDS011;50584;29.058;-110.966;2022-09-03T08:20:14;3.47;;;2.83;;
64244;SDS011;50584;29.058;-110.966;2022-09-03T08:22:40;3.38;;;2.80;;
64244;SDS011;50584;29.058;-110.966;2022-09-03T08:25:06;7.20;;;3.30;;
64244;SDS011;50584;29.058;-110.966;2022-09-03T08:27:32;7.40;;;3.15;;
64244;SDS011;50584;29.058;-110.966;2022-09-03T08:29:58;4.82;;;3.22;;
64244;SDS011;50584;29.058;-110.966;2022-09-03T08:32:24;3.83;;;3.40;;
64244;SDS011;50584;29.058;-110.966;2022-09-03T08:34:50;6.75;;;3.70;;
64244;SDS011;50584;29.058;-110.966;2022-09-03T08:37:16;5.40;;;3.25;;
64244;SDS011;50584;29.058;-110.966;2022-09-03T08:39:43;11.60;;;3.13;;
64244;SDS011;50584;29.058;-110.966;2022-09-03T08:42:20;5.47;;;3.05;;
64244;SDS011;50584;29.058;-110.966;2022-09-03T08:52:59;6.03;;;2.90;;
64244;SDS011;50584;29.058;-110.966;2022-09-03T08:55:13;4.18;;;3.20;;
64244;SDS011;50584;29.058;-110.966;2022-09-03T08:57:45;6.50;;;3.22;;
64244;SDS011;50584;29.058;-110.966;2022-09-03T09:00:12;5.72;;;2.97;;
64244;SDS011;50584;29.058;-110.966;2022-09-03T09:05:16;5.10;;;3.25;;
64244;SDS011;50584;29.058;-110.966;2022-09-03T09:07:50;3.50;;;3.20;;
64244;SDS011;50584;29.058;-110.966;2022-09-03T09:12:50;5.40;;;3.30;;
64244;SDS011;50584;29.058;-110.966;2022-09-03T09:15:29;4.80;;;3.03;;
64244;SDS011;50584;29.058;-110.966;2022-09-03T09:18:42;5.32;;;3.33;;
64244;SDS011;50584;29.058;-110.966;2022-09-03T09:20:52;8.52;;;3.55;;
64244;SDS011;50584;29.058;-110.966;2022-09-03T09:23:27;5.93;;;4.10;;
64244;SDS011;50584;29.058;-110.966;2022-09-03T09:25:54;6.15;;;3.97;;
64244;SDS011;50584;29.058;-110.966;2022-09-03T09:28:40;10.18;;;4.53;;
64244;SDS011;50584;29.058;-110.966;2022-09-03T09:31:07;4.90;;;3.10;;
64244;SDS011;50584;29.058;-110.966;2022-09-03T09:33:36;7.63;;;3.58;;
64244;SDS011;50584;29.058;-110.966;2022-09-03T09:36:04;5.80;;;3.40;;
64244;SDS011;50584;29.058;-110.966;2022-09-03T09:38:33;3.47;;;3.28;;
64244;SDS011;50584;29.058;-110.966;2022-09-03T09:41:11;5.28;;;3.22;;
64244;SDS011;50584;29.058;-110.966;2022-09-03T09:43:37;5.25;;;3.05;;
64244;SDS011;50584;29.058;-110.966;2022-09-03T09:46:22;4.25;;;3.10;;
64244;SDS011;50584;29.058;-110.966;2022-09-03T09:48:56;4.65;;;3.92;;
64244;SDS011;50584;29.058;-110.966;2022-09-03T09:51:23;7.80;;;5.40;;
64244;SDS011;50584;29.058;-110.966;2022-09-03T09:53:59;6.32;;;4.93;;
64244;SDS011;50584;29.058;-110.966;2022-09-03T09:56:26;9.13;;;6.30;;
64244;SDS011;50584;29.058;-110.966;2022-09-03T09:59:10;6.55;;;5.78;;
64244;SDS011;50584;29.058;-110.966;2022-09-03T10:01:40;8.98;;;4.78;;
64244;SDS011;50584;29.058;-110.966;2022-09-03T10:06:32;5.15;;;3.85;;
64244;SDS011;50584;29.058;-110.966;2022-09-03T10:09:18;5.47;;;3.35;;
64244;SDS011;50584;29.058;-110.966;2022-09-03T10:11:48;5.18;;;2.97;;
64244;SDS011;50584;29.058;-110.966;2022-09-03T10:14:26;6.60;;;3.47;;
64244;SDS011;50584;29.058;-110.966;2022-09-03T10:17:21;4.80;;;3.03;;
64244;SDS011;50584;29.058;-110.966;2022-09-03T10:22:30;6.32;;;2.90;;
64244;SDS011;50584;29.058;-110.966;2022-09-03T10:25:02;2.65;;;2.42;;
64244;SDS011;50584;29.058;-110.966;2022-09-03T10:27:28;6.22;;;2.38;;
64244;SDS011;50584;29.058;-110.966;2022-09-03T10:29:54;5.25;;;2.90;;
64244;SDS011;50584;29.058;-110.966;2022-09-03T10:51:15;6.65;;;2.67;;
64244;SDS011;50584;29.058;-110.966;2022-09-03T11:01:09;4.10;;;2.80;;
64244;SDS011;50584;29.058;-110.966;2022-09-03T11:03:44;2.65;;;2.45;;
64244;SDS011;50584;29.058;-110.966;2022-09-03T11:09:38;2.88;;;2.50;;
64244;SDS011;50584;29.058;-110.966;2022-09-03T11:11:43;6.47;;;2.85;;
64244;SDS011;50584;29.058;-110.966;2022-09-03T11:14:11;4.05;;;3.28;;
64244;SDS011;50584;29.058;-110.966;2022-09-03T11:16:47;3.28;;;2.65;;
64244;SDS011;50584;29.058;-110.966;2022-09-03T11:19:18;6.15;;;2.72;;
64244;SDS011;50584;29.058;-110.966;2022-09-03T11:24:18;4.63;;;2.88;;
64244;SDS011;50584;29.058;-110.966;2022-09-03T11:27:15;7.97;;;3.10;;
64244;SDS011;50584;29.058;-110.966;2022-09-03T11:29:38;4.53;;;3.20;;
64244;SDS011;50584;29.058;-110.966;2022-09-03T11:32:08;4.05;;;2.63;;
64244;SDS011;50584;29.058;-110.966;2022-09-03T11:34:46;3.22;;;2.35;;
64244;SDS011;50584;29.058;-110.966;2022-09-03T11:37:28;4.78;;;3.20;;
64244;SDS011;50584;29.058;-110.966;2022-09-03T11:39:56;3.15;;;2.70;;
64244;SDS011;50584;29.058;-110.966;2022-09-03T11:44:51;4.57;;;2.78;;
64244;SDS011;50584;29.058;-110.966;2022-09-03T11:47:21;8.38;;;3.08;;
64244;SDS011;50584;29.058;-110.966;2022-09-03T11:52:24;6.13;;;2.75;;
64244;SDS011;50584;29.058;-110.966;2022-09-03T11:54:50;3.65;;;2.53;;
64244;SDS011;50584;29.058;-110.966;2022-09-03T11:57:28;3.42;;;2.53;;
64244;SDS011;50584;29.058;-110.966;2022-09-03T11:59:54;5.90;;;2.50;;
64244;SDS011;50584;29.058;-110.966;2022-09-03T12:02:31;4.50;;;2.50;;
64244;SDS011;50584;29.058;-110.966;2022-09-03T12:05:48;6.22;;;2.72;;
64244;SDS011;50584;29.058;-110.966;2022-09-03T12:10:30;2.92;;;2.65;;
64244;SDS011;50584;29.058;-110.966;2022-09-03T12:23:32;6.10;;;2.60;;
64244;SDS011;50584;29.058;-110.966;2022-09-03T12:26:08;6.32;;;2.78;;
64244;SDS011;50584;29.058;-110.966;2022-09-03T12:31:17;7.68;;;2.75;;
64244;SDS011;50584;29.058;-110.966;2022-09-03T12:33:54;5.85;;;3.00;;
64244;SDS011;50584;29.058;-110.966;2022-09-03T12:36:21;5.43;;;2.72;;
64244;SDS011;50584;29.058;-110.966;2022-09-03T12:38:47;8.18;;;2.80;;
64244;SDS011;50584;29.058;-110.966;2022-09-03T12:41:26;4.70;;;3.17;;
64244;SDS011;50584;29.058;-110.966;2022-09-03T12:43:54;7.78;;;2.92;;
64244;SDS011;50584;29.058;-110.966;2022-09-03T12:46:24;3.67;;;2.90;;
64244;SDS011;50584;29.058;-110.966;2022-09-03T12:51:19;3.58;;;2.65;;
64244;SDS011;50584;29.058;-110.966;2022-09-03T12:53:45;7.63;;;2.90;;
64244;SDS011;50584;29.058;-110.966;2022-09-03T12:56:11;9.60;;;2.92;;
64244;SDS011;50584;29.058;-110.966;2022-09-03T12:58:42;7.03;;;2.85;;
64244;SDS011;50584;29.058;-110.966;2022-09-03T13:01:15;8.25;;;2.78;;
64244;SDS011;50584;29.058;-110.966;2022-09-03T13:03:48;5.45;;;2.60;;
64244;SDS011;50584;29.058;-110.966;2022-09-03T13:06:19;5.40;;;2.70;;
64244;SDS011;50584;29.058;-110.966;2022-09-03T13:08:46;5.60;;;3.35;;
64244;SDS011;50584;29.058;-110.966;2022-09-03T13:11:18;5.43;;;3.58;;
64244;SDS011;50584;29.058;-110.966;2022-09-03T13:16:28;6.30;;;4.00;;
64244;SDS011;50584;29.058;-110.966;2022-09-03T13:19:04;6.40;;;3.83;;
64244;SDS011;50584;29.058;-110.966;2022-09-03T13:21:45;11.82;;;4.38;;
64244;SDS011;50584;29.058;-110.966;2022-09-03T13:27:04;4.25;;;3.80;;
64244;SDS011;50584;29.058;-110.966;2022-09-03T13:35:46;6.22;;;4.15;;
64244;SDS011;50584;29.058;-110.966;2022-09-03T13:45:47;6.85;;;4.55;;
64244;SDS011;50584;29.058;-110.966;2022-09-03T13:51:22;6.43;;;4.45;;
64244;SDS011;50584;29.058;-110.966;2022-09-03T14:04:41;7.63;;;4.95;;
64244;SDS011;50584;29.058;-110.966;2022-09-03T14:07:10;8.93;;;5.35;;
64244;SDS011;50584;29.058;-110.966;2022-09-03T14:09:41;6.00;;;5.40;;
64244;SDS011;50584;29.058;-110.966;2022-09-03T14:15:00;8.05;;;4.70;;
64244;SDS011;50584;29.058;-110.966;2022-09-03T14:22:55;10.10;;;4.78;;
64244;SDS011;50584;29.058;-110.966;2022-09-03T14:25:24;8.80;;;5.35;;
64244;SDS011;50584;29.058;-110.966;2022-09-03T14:27:50;7.85;;;6.15;;
64244;SDS011;50584;29.058;-110.966;2022-09-03T14:33:09;9.40;;;5.20;;
64244;SDS011;50584;29.058;-110.966;2022-09-03T14:38:17;11.48;;;5.72;;
64244;SDS011;50584;29.058;-110.966;2022-09-03T14:40:46;13.05;;;5.95;;
64244;SDS011;50584;29.058;-110.966;2022-09-03T15:01:37;17.75;;;11.63;;
64244;SDS011;50584;29.058;-110.966;2022-09-03T15:11:58;10.40;;;7.10;;
64244;SDS011;50584;29.058;-110.966;2022-09-03T15:14:26;8.68;;;4.10;;
64244;SDS011;50584;29.058;-110.966;2022-09-03T15:19:34;10.15;;;3.17;;
64244;SDS011;50584;29.058;-110.966;2022-09-03T15:22:17;10.40;;;3.33;;
64244;SDS011;50584;29.058;-110.966;2022-09-03T15:30:24;5.43;;;2.85;;
64244;SDS011;50584;29.058;-110.966;2022-09-03T15:38:00;4.40;;;2.75;;
64244;SDS011;50584;29.058;-110.966;2022-09-03T15:43:35;3.35;;;2.55;;
64244;SDS011;50584;29.058;-110.966;2022-09-03T15:45:50;4.78;;;2.88;;
64244;SDS011;50584;29.058;-110.966;2022-09-03T15:56:06;2.65;;;2.30;;
64244;SDS011;50584;29.058;-110.966;2022-09-03T15:58:36;5.15;;;2.00;;
64244;SDS011;50584;29.058;-110.966;2022-09-03T16:06:55;2.70;;;2.05;;
64244;SDS011;50584;29.058;-110.966;2022-09-03T16:14:50;9.25;;;2.40;;
64244;SDS011;50584;29.058;-110.966;2022-09-03T16:17:23;4.95;;;2.35;;
64244;SDS011;50584;29.058;-110.966;2022-09-03T16:20:03;7.82;;;2.55;;
64244;SDS011;50584;29.058;-110.966;2022-09-03T16:22:31;6.28;;;2.42;;
64244;SDS011;50584;29.058;-110.966;2022-09-03T16:24:59;4.03;;;2.75;;
64244;SDS011;50584;29.058;-110.966;2022-09-03T16:27:27;3.75;;;2.67;;
64244;SDS011;50584;29.058;-110.966;2022-09-03T16:29:56;4.38;;;2.30;;
64244;SDS011;50584;29.058;-110.966;2022-09-03T16:32:30;3.63;;;2.70;;
64244;SDS011;50584;29.058;-110.966;2022-09-03T16:37:56;5.93;;;2.65;;
64244;SDS011;50584;29.058;-110.966;2022-09-03T16:40:35;3.53;;;2.50;;
64244;SDS011;50584;29.058;-110.966;2022-09-03T16:48:23;4.70;;;2.63;;
64244;SDS011;50584;29.058;-110.966;2022-09-03T16:58:24;4.03;;;3.20;;
64244;SDS011;50584;29.058;-110.966;2022-09-03T17:03:42;4.10;;;3.17;;
64244;SDS011;50584;29.058;-110.966;2022-09-03T17:06:15;7.13;;;3.20;;
64244;SDS011;50584;29.058;-110.966;2022-09-03T17:08:47;10.38;;;2.80;;
64244;SDS011;50584;29.058;-110.966;2022-09-03T17:13:53;6.70;;;2.87;;
64244;SDS011;50584;29.058;-110.966;2022-09-03T17:21:26;8.30;;;2.97;;
64244;SDS011;50584;29.058;-110.966;2022-09-03T17:24:06;3.10;;;2.80;;
64244;SDS011;50584;29.058;-110.966;2022-09-03T17:26:38;4.55;;;2.90;;
64244;SDS011;50584;29.058;-110.966;2022-09-03T17:34:43;5.70;;;3.13;;
64244;SDS011;50584;29.058;-110.966;2022-09-03T17:37:30;3.88;;;2.70;;
64244;SDS011;50584;29.058;-110.966;2022-09-03T17:50:28;4.97;;;2.45;;
64244;SDS011;50584;29.058;-110.966;2022-09-03T17:52:56;4.03;;;2.60;;
64244;SDS011;50584;29.058;-110.966;2022-09-03T17:55:27;5.03;;;2.80;;
64244;SDS011;50584;29.058;-110.966;2022-09-03T17:57:59;4.30;;;2.63;;
64244;SDS011;50584;29.058;-110.966;2022-09-03T18:00:41;7.70;;;2.75;;
64244;SDS011;50584;29.058;-110.966;2022-09-03T18:03:56;4.55;;;2.80;;
64244;SDS011;50584;29.058;-110.966;2022-09-03T18:06:02;5.93;;;2.70;;
64244;SDS011;50584;29.058;-110.966;2022-09-03T18:08:32;7.38;;;2.30;;
64244;SDS011;50584;29.058;-110.966;2022-09-03T18:16:13;4.78;;;2.78;;
64244;SDS011;50584;29.058;-110.966;2022-09-03T18:18:46;5.82;;;2.30;;
64244;SDS011;50584;29.058;-110.966;2022-09-03T18:21:23;13.82;;;2.55;;
64244;SDS011;50584;29.058;-110.966;2022-09-03T18:27:11;8.00;;;2.40;;
64244;SDS011;50584;29.058;-110.966;2022-09-03T18:30:10;4.10;;;2.40;;
64244;SDS011;50584;29.058;-110.966;2022-09-03T18:32:55;8.00;;;2.30;;
64244;SDS011;50584;29.058;-110.966;2022-09-03T18:35:39;9.00;;;2.80;;
64244;SDS011;50584;29.058;-110.966;2022-09-03T18:38:26;5.10;;;2.20;;
64244;SDS011;50584;29.058;-110.966;2022-09-03T18:53:33;4.90;;;2.60;;
64244;SDS011;50584;29.058;-110.966;2022-09-03T18:56:53;5.57;;;2.28;;
64244;SDS011;50584;29.058;-110.966;2022-09-03T18:59:35;7.38;;;2.97;;
64244;SDS011;50584;29.058;-110.966;2022-09-03T19:02:28;11.32;;;2.92;;
64244;SDS011;50584;29.058;-110.966;2022-09-03T19:05:34;6.20;;;2.50;;
64244;SDS011;50584;29.058;-110.966;2022-09-03T19:08:26;3.53;;;2.40;;
64244;SDS011;50584;29.058;-110.966;2022-09-03T19:11:30;6.72;;;2.40;;
64244;SDS011;50584;29.058;-110.966;2022-09-03T19:14:26;6.05;;;2.30;;
64244;SDS011;50584;29.058;-110.966;2022-09-03T19:20:04;3.85;;;2.55;;
64244;SDS011;50584;29.058;-110.966;2022-09-03T19:22:52;3.85;;;2.72;;
64244;SDS011;50584;29.058;-110.966;2022-09-03T19:25:35;6.38;;;2.40;;